createdAt,value
2022-10-06T00:00:37.117Z,0.00
2022-10-06T00:01:37.161Z,0.00
2022-10-06T00:02:37.128Z,0.00
2022-10-06T00:03:37.070Z,0.00
2022-10-06T00:04:37.042Z,0.00
2022-10-06T00:05:37.025Z,0.00
2022-10-06T00:06:37.029Z,0.00
2022-10-06T00:07:37.005Z,0.00
2022-10-06T00:08:36.992Z,0.00
2022-10-06T00:09:36.985Z,0.00
2022-10-06T00:10:36.975Z,0.00
2022-10-06T00:11:36.979Z,0.00
2022-10-06T00:12:36.959Z,0.00
2022-10-06T00:13:36.973Z,0.00
2022-10-06T00:14:36.931Z,0.00
2022-10-06T00:15:37.001Z,0.00
2022-10-06T00:16:36.923Z,0.00
2022-10-06T00:17:36.901Z,0.00
2022-10-06T00:18:36.896Z,0.00
2022-10-06T06:10:00.107Z,0.00
2022-10-06T06:10:31.827Z,1034.00
2022-10-06T06:11:30.811Z,1058.00
2022-10-06T06:12:30.836Z,1075.00
2022-10-06T06:13:30.795Z,1097.00
2022-10-06T06:14:30.800Z,1121.00
2022-10-06T06:15:30.778Z,1144.00
2022-10-06T06:16:30.815Z,1170.00
2022-10-06T06:17:30.776Z,1191.00
2022-10-06T06:18:31.152Z,1228.00
2022-10-06T06:19:30.726Z,1257.00
2022-10-06T06:20:30.727Z,1294.00
2022-10-06T06:21:30.720Z,1326.00
2022-10-06T06:22:37.760Z,1359.00
2022-10-06T06:23:30.698Z,1394.00
2022-10-06T06:24:30.680Z,1429.00
2022-10-06T06:25:30.744Z,1468.00
2022-10-06T06:26:30.676Z,1514.00
2022-10-06T06:27:30.674Z,1575.00
2022-10-06T06:28:31.051Z,1618.00
2022-10-06T06:29:30.627Z,1639.00
2022-10-06T06:30:30.616Z,1661.00
2022-10-06T06:31:30.656Z,1694.00
2022-10-06T06:32:30.608Z,1715.00
2022-10-06T06:33:30.586Z,1750.00
2022-10-06T06:34:30.571Z,1790.00
2022-10-06T06:35:30.569Z,1839.00
2022-10-06T06:36:30.554Z,1880.00
2022-10-06T06:37:30.565Z,1911.00
2022-10-06T06:38:30.925Z,1944.00
2022-10-06T06:39:30.521Z,1980.00
2022-10-06T06:40:30.509Z,1983.00
2022-10-06T06:41:30.560Z,2020.00
2022-10-06T06:42:30.488Z,2043.00
2022-10-06T06:43:31.071Z,2056.00
2022-10-06T06:44:30.470Z,2076.00
2022-10-06T06:45:30.461Z,2089.00
2022-10-06T06:46:30.613Z,2107.00
2022-10-06T06:47:30.444Z,2119.00
2022-10-06T06:48:30.841Z,2127.00
2022-10-06T06:49:30.424Z,2141.00
2022-10-06T06:50:30.409Z,2141.00
2022-10-06T06:51:30.398Z,2149.00
2022-10-06T06:52:30.387Z,2185.00
2022-10-06T06:53:30.398Z,2189.00
2022-10-06T06:54:30.364Z,2169.00
2022-10-06T06:55:30.358Z,2200.00
2022-10-06T06:56:30.348Z,2177.00
2022-10-06T06:57:30.386Z,2221.00
2022-10-06T06:58:30.686Z,2267.00
2022-10-06T06:59:30.314Z,2257.00
2022-10-06T07:00:35.237Z,2257.00
2022-10-06T07:01:31.358Z,2296.00
2022-10-06T07:02:30.345Z,2365.00
2022-10-06T07:03:56.250Z,2386.00
2022-10-06T07:04:31.271Z,2382.00
2022-10-06T07:05:30.257Z,2419.00
2022-10-06T07:06:30.240Z,2461.00
2022-10-06T07:07:30.255Z,2501.00
2022-10-06T07:08:30.586Z,2526.00
2022-10-06T07:09:30.210Z,2545.00
2022-10-06T07:10:30.225Z,2525.00
2022-10-06T07:11:30.196Z,2480.00
2022-10-06T07:12:30.177Z,2534.00
2022-10-06T07:13:30.221Z,2524.00
2022-10-06T07:14:30.156Z,2502.00
2022-10-06T07:15:30.206Z,2540.00
2022-10-06T07:16:30.138Z,2531.00
2022-10-06T07:17:30.128Z,2577.00
2022-10-06T07:18:30.563Z,2610.00
2022-10-06T07:19:30.107Z,2635.00
2022-10-06T07:20:30.092Z,2635.00
2022-10-06T07:21:30.089Z,2641.00
2022-10-06T07:22:30.075Z,2654.00
2022-10-06T07:23:30.119Z,2657.00
2022-10-06T07:24:30.053Z,2660.00
2022-10-06T07:25:30.053Z,2663.00
2022-10-06T07:26:30.036Z,2654.00
2022-10-06T07:27:30.024Z,2631.00
2022-10-06T07:28:30.113Z,2609.00
2022-10-06T07:29:30.042Z,2595.00
2022-10-06T07:30:29.992Z,2581.00
2022-10-06T07:31:30.042Z,2562.00
2022-10-06T07:32:29.975Z,2550.00
2022-10-06T07:33:29.986Z,2536.00
2022-10-06T07:34:29.998Z,2508.00
2022-10-06T07:35:29.939Z,2502.00
2022-10-06T07:36:29.930Z,2487.00
2022-10-06T07:37:29.924Z,2476.00
2022-10-06T07:38:29.945Z,2484.00
2022-10-06T07:39:29.898Z,2488.00
2022-10-06T07:40:29.894Z,2489.00
2022-10-06T07:41:29.899Z,2493.00
2022-10-06T07:42:29.871Z,2502.00
2022-10-06T07:43:29.874Z,2491.00
2022-10-06T07:44:29.848Z,2517.00
2022-10-06T07:45:29.966Z,2516.00
2022-10-06T07:46:29.832Z,2504.00
2022-10-06T07:47:29.817Z,2485.00
2022-10-06T07:48:29.831Z,2481.00
2022-10-06T07:49:29.799Z,2468.00
2022-10-06T07:50:29.783Z,2471.00
2022-10-06T07:51:29.781Z,2472.00
2022-10-06T07:52:29.762Z,2463.00
2022-10-06T07:53:29.775Z,2447.00
2022-10-06T07:54:29.742Z,2460.00
2022-10-06T07:55:29.741Z,2452.00
2022-10-06T07:56:29.722Z,2451.00
2022-10-06T07:57:29.719Z,2467.00
2022-10-06T07:58:29.713Z,2435.00
2022-10-06T07:59:29.696Z,2458.00
2022-10-06T08:00:29.765Z,2452.00
2022-10-06T08:01:29.805Z,2448.00
2022-10-06T08:02:31.564Z,2427.00
2022-10-06T08:03:30.668Z,2427.00
2022-10-06T08:04:29.640Z,2421.00
2022-10-06T08:05:29.632Z,2439.00
2022-10-06T08:06:29.635Z,2467.00
2022-10-06T08:07:29.612Z,2502.00
2022-10-06T08:08:29.612Z,2487.00
2022-10-06T08:09:29.601Z,2484.00
2022-10-06T08:10:29.576Z,2511.00
2022-10-06T08:11:29.569Z,2492.00
2022-10-06T08:12:29.555Z,2460.00
2022-10-06T08:13:29.577Z,2436.00
2022-10-06T08:14:29.555Z,2433.00
2022-10-06T08:15:29.529Z,2458.00
2022-10-06T08:16:29.599Z,2447.00
2022-10-06T08:17:29.528Z,2435.00
2022-10-06T08:18:46.908Z,2452.00
2022-10-06T08:19:30.497Z,2464.00
2022-10-06T08:20:29.474Z,2447.00
2022-10-06T08:21:29.467Z,2470.00
2022-10-06T08:22:29.465Z,2458.00
2022-10-06T08:23:29.444Z,2454.00
2022-10-06T08:24:37.805Z,2428.00
2022-10-06T08:25:30.430Z,2452.00
2022-10-06T08:26:29.409Z,2453.00
2022-10-06T08:27:29.411Z,2491.00
2022-10-06T08:28:29.441Z,2464.00
2022-10-06T08:29:29.398Z,2484.00
2022-10-06T08:30:29.374Z,2491.00
2022-10-06T08:31:29.446Z,2504.00
2022-10-06T08:32:29.350Z,2538.00
2022-10-06T08:33:29.365Z,2601.00
2022-10-06T08:34:29.341Z,2613.00
2022-10-06T08:35:29.319Z,2634.00
2022-10-06T08:36:32.009Z,2648.00
2022-10-06T08:37:29.298Z,2669.00
2022-10-06T08:38:29.291Z,2678.00
2022-10-06T08:39:29.292Z,2637.00
2022-10-06T08:40:29.268Z,2607.00
2022-10-06T08:41:29.256Z,2600.00
2022-10-06T08:42:29.248Z,2605.00
2022-10-06T08:43:29.242Z,2623.00
2022-10-06T08:44:29.240Z,2650.00
2022-10-06T08:45:29.241Z,2659.00
2022-10-06T08:46:29.206Z,2701.00
2022-10-06T08:47:29.195Z,2723.00
2022-10-06T08:48:29.185Z,2809.00
2022-10-06T08:49:29.261Z,2857.00
2022-10-06T08:50:29.163Z,2864.00
2022-10-06T08:51:29.158Z,2874.00
2022-10-06T08:52:29.142Z,2877.00
2022-10-06T08:53:29.135Z,2870.00
2022-10-06T08:54:29.141Z,2892.00
2022-10-06T08:55:29.113Z,2937.00
2022-10-06T08:56:29.108Z,2949.00
2022-10-06T08:57:29.089Z,3030.00
2022-10-06T08:58:29.107Z,2956.00
2022-10-06T08:59:29.087Z,2901.00
2022-10-06T09:00:29.063Z,2865.00
2022-10-06T09:01:29.133Z,2899.00
2022-10-06T09:02:29.227Z,2912.00
2022-10-06T09:03:29.028Z,2959.00
2022-10-06T09:04:29.036Z,2986.00
2022-10-06T09:05:29.032Z,3112.00
2022-10-06T09:06:29.005Z,3151.00
2022-10-06T09:07:28.989Z,3154.00
2022-10-06T09:08:29.002Z,3162.00
2022-10-06T09:09:28.979Z,3096.00
2022-10-06T09:10:28.961Z,3117.00
2022-10-06T09:11:28.954Z,3134.00
2022-10-06T09:12:28.937Z,2970.00
2022-10-06T09:13:28.929Z,3087.00
2022-10-06T09:14:28.938Z,3112.00
2022-10-06T09:15:28.905Z,3266.00
2022-10-06T09:16:28.945Z,3326.00
2022-10-06T09:17:28.888Z,3278.00
2022-10-06T09:18:49.014Z,3288.00
2022-10-06T09:19:32.845Z,3328.00
2022-10-06T09:20:28.854Z,3258.00
2022-10-06T09:21:28.873Z,3379.00
2022-10-06T09:22:28.838Z,3426.00
2022-10-06T09:23:28.825Z,3325.00
2022-10-06T09:24:28.838Z,3342.00
2022-10-06T09:25:28.804Z,3304.00
2022-10-06T09:26:28.793Z,3317.00
2022-10-06T09:27:28.795Z,3338.00
2022-10-06T09:28:28.916Z,3367.00
2022-10-06T09:29:28.782Z,3303.00
2022-10-06T09:30:28.756Z,3345.00
2022-10-06T09:31:28.797Z,3379.00
2022-10-06T09:32:28.736Z,3392.00
2022-10-06T09:33:28.722Z,3417.00
2022-10-06T09:34:28.732Z,3435.00
2022-10-06T09:35:28.706Z,3459.00
2022-10-06T09:36:28.692Z,3412.00
2022-10-06T09:37:28.708Z,3487.00
2022-10-06T09:38:28.670Z,3490.00
2022-10-06T09:39:28.685Z,3488.00
2022-10-06T09:40:28.659Z,3526.00
2022-10-06T09:41:28.639Z,3560.00
2022-10-06T09:42:28.629Z,3556.00
2022-10-06T09:43:28.616Z,3558.00
2022-10-06T09:44:28.609Z,3630.00
2022-10-06T09:45:28.611Z,3591.00
2022-10-06T09:46:28.591Z,3561.00
2022-10-06T09:47:28.576Z,3552.00
2022-10-06T09:48:28.578Z,3567.00
2022-10-06T09:49:28.555Z,3576.00
2022-10-06T09:50:28.560Z,3564.00
2022-10-06T09:51:28.533Z,3578.00
2022-10-06T09:52:28.525Z,3608.00
2022-10-06T09:53:28.534Z,3606.00
2022-10-06T09:54:28.504Z,3593.00
2022-10-06T09:55:28.518Z,3604.00
2022-10-06T09:56:28.484Z,3660.00
2022-10-06T09:57:28.469Z,3658.00
2022-10-06T09:58:28.461Z,3651.00
2022-10-06T09:59:28.450Z,3659.00
2022-10-06T10:00:28.459Z,3625.00
2022-10-06T10:01:28.491Z,3693.00
2022-10-06T10:02:28.458Z,3713.00
2022-10-06T10:03:28.411Z,3718.00
2022-10-06T10:04:28.398Z,3711.00
2022-10-06T10:05:28.401Z,3733.00
2022-10-06T10:06:28.378Z,3738.00
2022-10-06T10:07:28.366Z,3733.00
2022-10-06T10:08:28.410Z,3618.00
2022-10-06T10:09:28.371Z,3749.00
2022-10-06T10:10:28.348Z,3773.00
2022-10-06T10:11:28.322Z,3777.00
2022-10-06T10:12:28.471Z,3786.00
2022-10-06T10:13:28.309Z,3800.00
2022-10-06T10:14:28.296Z,3802.00
2022-10-06T10:15:28.312Z,3617.00
2022-10-06T10:16:28.301Z,3608.00
2022-10-06T10:17:28.258Z,3853.00
2022-10-06T10:18:28.262Z,3858.00
2022-10-06T10:19:28.241Z,3866.00
2022-10-06T10:20:28.284Z,3716.00
2022-10-06T10:21:28.218Z,3859.00
2022-10-06T10:22:28.207Z,3880.00
2022-10-06T10:23:31.389Z,3900.00
2022-10-06T10:24:28.214Z,3912.00
2022-10-06T10:25:28.211Z,3949.00
2022-10-06T10:26:28.169Z,3945.00
2022-10-06T10:27:28.158Z,3940.00
2022-10-06T10:28:28.238Z,3982.00
2022-10-06T10:29:32.412Z,4015.00
2022-10-06T10:30:28.142Z,4050.00
2022-10-06T10:31:28.209Z,4096.00
2022-10-06T10:32:28.108Z,4098.00
2022-10-06T10:33:28.118Z,4155.00
2022-10-06T10:34:28.088Z,4172.00
2022-10-06T10:35:28.089Z,4212.00
2022-10-06T10:36:28.066Z,4229.00
2022-10-06T10:37:28.049Z,4207.00
2022-10-06T10:38:28.075Z,4223.00
2022-10-06T10:39:28.030Z,4288.00
2022-10-06T10:40:28.034Z,4300.00
2022-10-06T10:41:28.034Z,4364.00
2022-10-06T10:42:27.999Z,4362.00
2022-10-06T10:43:27.992Z,4414.00
2022-10-06T10:44:27.980Z,4477.00
2022-10-06T10:45:27.980Z,4487.00
2022-10-06T10:46:27.995Z,4590.00
2022-10-06T10:47:27.947Z,4589.00
2022-10-06T10:48:27.941Z,4593.00
2022-10-06T10:49:27.929Z,4643.00
2022-10-06T10:50:27.931Z,4691.00
2022-10-06T10:51:27.925Z,4738.00
2022-10-06T10:52:27.899Z,4751.00
2022-10-06T10:53:27.912Z,4778.00
2022-10-06T10:54:27.878Z,4814.00
2022-10-06T10:55:27.889Z,4853.00
2022-10-06T10:56:27.860Z,4885.00
2022-10-06T10:57:27.868Z,4910.00
2022-10-06T10:58:27.837Z,4993.00
2022-10-06T10:59:27.823Z,5012.00
2022-10-06T11:00:27.843Z,5058.00
2022-10-06T11:01:27.805Z,5117.00
2022-10-06T11:02:27.795Z,5212.00
2022-10-06T11:03:27.783Z,5168.00
2022-10-06T11:04:27.798Z,5200.00
2022-10-06T11:05:28.983Z,5269.00
2022-10-06T11:06:27.773Z,5334.00
2022-10-06T11:07:27.744Z,5298.00
2022-10-06T11:08:27.739Z,5319.00
2022-10-06T11:09:27.748Z,5257.00
2022-10-06T11:10:27.729Z,5321.00
2022-10-06T11:11:27.702Z,5300.00
2022-10-06T11:12:27.715Z,5334.00
2022-10-06T11:13:27.707Z,5435.00
2022-10-06T11:14:27.678Z,5400.00
2022-10-06T11:15:27.680Z,5472.00
2022-10-06T11:16:27.711Z,5435.00
2022-10-06T11:17:27.640Z,5450.00
2022-10-06T11:18:27.650Z,5470.00
2022-10-06T11:19:27.620Z,5498.00
2022-10-06T11:20:27.609Z,5523.00
2022-10-06T11:21:27.654Z,5602.00
2022-10-06T11:22:27.590Z,5554.00
2022-10-06T11:23:27.577Z,5549.00
2022-10-06T11:24:27.572Z,5629.00
2022-10-06T11:25:29.149Z,3670.00
2022-10-06T11:26:28.576Z,5372.00
2022-10-06T11:27:27.534Z,5696.00
2022-10-06T11:28:27.604Z,5726.00
2022-10-06T11:29:27.535Z,5739.00
2022-10-06T11:30:27.504Z,5888.00
2022-10-06T11:31:27.548Z,5908.00
2022-10-06T11:32:27.489Z,5816.00
2022-10-06T11:33:27.476Z,5861.00
2022-10-06T11:34:27.466Z,5716.00
2022-10-06T11:35:27.464Z,5906.00
2022-10-06T11:36:27.455Z,5913.00
2022-10-06T11:37:27.436Z,6081.00
2022-10-06T11:38:27.428Z,6094.00
2022-10-06T11:39:27.424Z,5977.00
2022-10-06T11:40:27.402Z,6103.00
2022-10-06T11:41:27.427Z,6056.00
2022-10-06T11:42:27.382Z,6136.00
2022-10-06T11:43:27.395Z,6209.00
2022-10-06T11:44:27.362Z,6209.00
2022-10-06T11:45:27.397Z,6216.00
2022-10-06T11:46:31.189Z,6249.00
2022-10-06T11:47:34.833Z,6231.00
2022-10-06T11:48:28.324Z,6281.00
2022-10-06T11:49:27.306Z,6296.00
2022-10-06T11:50:27.296Z,6467.00
2022-10-06T11:51:27.297Z,6440.00
2022-10-06T11:52:27.274Z,6458.00
2022-10-06T11:53:27.266Z,6376.00
2022-10-06T11:54:27.261Z,6291.00
2022-10-06T11:55:27.245Z,6384.00
2022-10-06T11:56:27.257Z,6403.00
2022-10-06T11:57:30.908Z,6492.00
2022-10-06T11:58:41.956Z,6463.00
2022-10-06T11:59:28.202Z,6415.00
2022-10-06T12:00:27.205Z,6460.00
2022-10-06T12:01:27.221Z,6600.00
2022-10-06T12:02:27.305Z,6669.00
2022-10-06T12:03:27.200Z,6740.00
2022-10-06T12:04:27.152Z,6769.00
2022-10-06T12:05:57.408Z,6622.00
2022-10-06T12:06:28.156Z,6705.00
2022-10-06T12:07:27.120Z,6600.00
2022-10-06T12:08:27.109Z,6481.00
2022-10-06T12:09:27.099Z,6513.00
2022-10-06T12:10:27.089Z,6510.00
2022-10-06T12:11:27.092Z,6518.00
2022-10-06T12:12:27.069Z,6554.00
2022-10-06T12:14:12.339Z,6570.00
2022-10-06T12:17:28.051Z,6480.00
2022-10-06T12:18:27.007Z,6672.00
2022-10-06T12:19:26.996Z,6558.00
2022-10-06T12:20:26.989Z,6670.00
2022-10-06T12:21:26.989Z,6569.00
2022-10-06T12:22:26.961Z,6598.00
2022-10-06T12:24:46.676Z,0.00
2022-10-06T12:25:44.253Z,6624.00
2022-10-06T12:26:44.254Z,6640.00
2022-10-06T12:27:44.226Z,6706.00
2022-10-06T12:28:44.259Z,6694.00
2022-10-06T12:29:44.210Z,6686.00
2022-10-06T12:30:44.237Z,6733.00
2022-10-06T12:31:44.202Z,6702.00
2022-10-06T12:32:44.235Z,6731.00
2022-10-06T12:36:30.115Z,0.00
2022-10-06T12:37:15.974Z,6849.00
2022-10-06T12:38:15.966Z,6789.00
2022-10-06T12:39:15.935Z,6764.00
2022-10-06T12:40:15.922Z,6834.00
2022-10-06T12:41:15.929Z,6809.00
2022-10-06T12:42:15.918Z,6813.00
2022-10-06T12:43:15.913Z,6860.00
2022-10-06T12:44:15.912Z,6863.00
2022-10-06T12:45:15.881Z,6886.00
2022-10-06T12:46:15.914Z,6904.00
2022-10-06T12:47:15.968Z,6931.00
2022-10-06T12:48:15.867Z,6922.00
